sensor_id;sensor_type;location;lat;lon;timestamp;temperature;humidity
62259;DHT22;48241;48.824;10.102;2022-10-14T00:00:28;15.50;96.50
62259;DHT22;48241;48.824;10.102;2022-10-14T00:02:54;15.60;96.10
62259;DHT22;48241;48.824;10.102;2022-10-14T00:05:19;15.60;95.90
62259;DHT22;48241;48.824;10.102;2022-10-14T00:07:45;15.60;95.80
62259;DHT22;48241;48.824;10.102;2022-10-14T00:10:10;15.80;95.80
62259;DHT22;48241;48.824;10.102;2022-10-14T00:12:36;15.60;95.90
62259;DHT22;48241;48.824;10.102;2022-10-14T00:15:02;15.60;95.80
62259;DHT22;48241;48.824;10.102;2022-10-14T00:17:27;15.40;96.40
62259;DHT22;48241;48.824;10.102;2022-10-14T00:19:53;15.30;96.40
62259;DHT22;48241;48.824;10.102;2022-10-14T00:22:18;15.30;96.30
62259;DHT22;48241;48.824;10.102;2022-10-14T00:24:44;15.30;96.60
62259;DHT22;48241;48.824;10.102;2022-10-14T00:27:09;15.40;96.40
62259;DHT22;48241;48.824;10.102;2022-10-14T00:29:35;15.30;96.50
62259;DHT22;48241;48.824;10.102;2022-10-14T00:32:00;15.40;96.00
62259;DHT22;48241;48.824;10.102;2022-10-14T00:34:26;15.30;96.50
62259;DHT22;48241;48.824;10.102;2022-10-14T00:36:51;15.50;96.50
62259;DHT22;48241;48.824;10.102;2022-10-14T00:39:17;15.30;96.40
62259;DHT22;48241;48.824;10.102;2022-10-14T00:41:43;15.30;96.70
62259;DHT22;48241;48.824;10.102;2022-10-14T00:49:14;15.40;96.40
62259;DHT22;48241;48.824;10.102;2022-10-14T00:51:44;15.50;96.20
62259;DHT22;48241;48.824;10.102;2022-10-14T00:54:12;15.40;96.40
62259;DHT22;48241;48.824;10.102;2022-10-14T00:56:39;15.40;96.30
62259;DHT22;48241;48.824;10.102;2022-10-14T00:59:06;15.40;96.40
62259;DHT22;48241;48.824;10.102;2022-10-14T01:01:32;15.40;96.70
62259;DHT22;48241;48.824;10.102;2022-10-14T01:03:57;15.20;96.90
62259;DHT22;48241;48.824;10.102;2022-10-14T01:06:33;15.40;96.50
62259;DHT22;48241;48.824;10.102;2022-10-14T01:12:27;15.50;96.30
62259;DHT22;48241;48.824;10.102;2022-10-14T01:15:15;15.50;96.00
62259;DHT22;48241;48.824;10.102;2022-10-14T01:20:40;15.20;96.50
62259;DHT22;48241;48.824;10.102;2022-10-14T01:29:08;15.30;96.20
62259;DHT22;48241;48.824;10.102;2022-10-14T01:31:41;15.20;96.50
62259;DHT22;48241;48.824;10.102;2022-10-14T01:34:09;15.20;96.50
62259;DHT22;48241;48.824;10.102;2022-10-14T01:36:48;15.30;96.60
62259;DHT22;48241;48.824;10.102;2022-10-14T01:39:27;15.30;96.30
62259;DHT22;48241;48.824;10.102;2022-10-14T01:42:03;15.30;96.10
62259;DHT22;48241;48.824;10.102;2022-10-14T01:44:32;15.30;95.90
62259;DHT22;48241;48.824;10.102;2022-10-14T01:47:01;15.20;96.00
62259;DHT22;48241;48.824;10.102;2022-10-14T01:49:34;15.00;96.50
62259;DHT22;48241;48.824;10.102;2022-10-14T01:52:06;15.00;96.60
62259;DHT22;48241;48.824;10.102;2022-10-14T01:54:36;14.80;96.90
62259;DHT22;48241;48.824;10.102;2022-10-14T01:57:10;14.90;97.10
62259;DHT22;48241;48.824;10.102;2022-10-14T01:59:37;14.70;96.80
62259;DHT22;48241;48.824;10.102;2022-10-14T02:02:04;14.80;97.00
62259;DHT22;48241;48.824;10.102;2022-10-14T02:04:30;14.70;97.40
62259;DHT22;48241;48.824;10.102;2022-10-14T02:10:06;14.70;97.00
62259;DHT22;48241;48.824;10.102;2022-10-14T02:12:47;14.70;97.10
62259;DHT22;48241;48.824;10.102;2022-10-14T02:15:41;14.70;96.70
62259;DHT22;48241;48.824;10.102;2022-10-14T02:18:30;14.60;97.20
62259;DHT22;48241;48.824;10.102;2022-10-14T02:21:19;14.60;97.30
62259;DHT22;48241;48.824;10.102;2022-10-14T02:23:53;14.60;97.20
62259;DHT22;48241;48.824;10.102;2022-10-14T02:26:22;14.60;97.10
62259;DHT22;48241;48.824;10.102;2022-10-14T02:28:49;14.70;96.90
62259;DHT22;48241;48.824;10.102;2022-10-14T02:31:16;14.50;96.90
62259;DHT22;48241;48.824;10.102;2022-10-14T02:33:46;14.60;96.80
62259;DHT22;48241;48.824;10.102;2022-10-14T02:36:17;14.80;96.90
62259;DHT22;48241;48.824;10.102;2022-10-14T02:38:45;14.60;96.60
62259;DHT22;48241;48.824;10.102;2022-10-14T02:41:14;14.60;96.40
62259;DHT22;48241;48.824;10.102;2022-10-14T02:43:43;14.60;96.60
62259;DHT22;48241;48.824;10.102;2022-10-14T02:46:09;14.50;96.60
62259;DHT22;48241;48.824;10.102;2022-10-14T02:48:35;14.20;97.60
62259;DHT22;48241;48.824;10.102;2022-10-14T02:51:00;14.20;97.60
62259;DHT22;48241;48.824;10.102;2022-10-14T02:53:26;13.90;98.20
62259;DHT22;48241;48.824;10.102;2022-10-14T02:55:51;13.80;98.90
62259;DHT22;48241;48.824;10.102;2022-10-14T02:58:17;13.80;98.80
62259;DHT22;48241;48.824;10.102;2022-10-14T03:00:43;13.70;99.20
62259;DHT22;48241;48.824;10.102;2022-10-14T03:03:08;13.80;99.00
62259;DHT22;48241;48.824;10.102;2022-10-14T03:05:34;13.80;99.30
62259;DHT22;48241;48.824;10.102;2022-10-14T03:07:59;13.80;99.00
62259;DHT22;48241;48.824;10.102;2022-10-14T03:10:25;13.70;99.40
62259;DHT22;48241;48.824;10.102;2022-10-14T03:12:51;13.70;99.40
62259;DHT22;48241;48.824;10.102;2022-10-14T03:15:16;13.80;99.60
62259;DHT22;48241;48.824;10.102;2022-10-14T03:17:42;13.70;99.50
62259;DHT22;48241;48.824;10.102;2022-10-14T03:20:08;13.70;99.40
62259;DHT22;48241;48.824;10.102;2022-10-14T03:22:33;13.50;99.70
62259;DHT22;48241;48.824;10.102;2022-10-14T03:24:59;13.80;99.90
62259;DHT22;48241;48.824;10.102;2022-10-14T03:27:24;13.80;99.20
62259;DHT22;48241;48.824;10.102;2022-10-14T03:29:51;13.80;98.90
62259;DHT22;48241;48.824;10.102;2022-10-14T03:32:16;13.90;99.40
62259;DHT22;48241;48.824;10.102;2022-10-14T03:34:42;14.00;98.50
62259;DHT22;48241;48.824;10.102;2022-10-14T03:37:07;14.00;98.70
62259;DHT22;48241;48.824;10.102;2022-10-14T03:39:33;14.10;98.50
62259;DHT22;48241;48.824;10.102;2022-10-14T03:41:59;14.00;98.30
62259;DHT22;48241;48.824;10.102;2022-10-14T03:44:24;14.10;98.10
62259;DHT22;48241;48.824;10.102;2022-10-14T03:46:50;14.00;98.10
62259;DHT22;48241;48.824;10.102;2022-10-14T03:49:16;14.20;98.10
62259;DHT22;48241;48.824;10.102;2022-10-14T03:51:41;14.40;98.10
62259;DHT22;48241;48.824;10.102;2022-10-14T03:54:07;14.40;97.30
62259;DHT22;48241;48.824;10.102;2022-10-14T03:56:32;14.50;96.80
62259;DHT22;48241;48.824;10.102;2022-10-14T03:58:58;14.40;97.10
62259;DHT22;48241;48.824;10.102;2022-10-14T04:01:24;14.50;97.00
62259;DHT22;48241;48.824;10.102;2022-10-14T04:03:49;14.40;97.60
62259;DHT22;48241;48.824;10.102;2022-10-14T04:06:15;14.30;96.90
62259;DHT22;48241;48.824;10.102;2022-10-14T04:08:41;14.30;97.40
62259;DHT22;48241;48.824;10.102;2022-10-14T04:11:07;14.20;97.30
62259;DHT22;48241;48.824;10.102;2022-10-14T04:13:33;14.20;97.70
62259;DHT22;48241;48.824;10.102;2022-10-14T04:16:06;14.30;98.00
62259;DHT22;48241;48.824;10.102;2022-10-14T04:18:33;14.50;97.50
62259;DHT22;48241;48.824;10.102;2022-10-14T04:21:00;14.70;96.70
62259;DHT22;48241;48.824;10.102;2022-10-14T04:23:26;14.70;96.50
62259;DHT22;48241;48.824;10.102;2022-10-14T04:25:52;14.60;96.70
62259;DHT22;48241;48.824;10.102;2022-10-14T04:28:17;14.70;96.60
62259;DHT22;48241;48.824;10.102;2022-10-14T04:30:43;14.80;96.50
62259;DHT22;48241;48.824;10.102;2022-10-14T04:33:08;14.70;97.10
62259;DHT22;48241;48.824;10.102;2022-10-14T04:35:34;14.60;96.80
62259;DHT22;48241;48.824;10.102;2022-10-14T04:37:59;14.70;96.90
62259;DHT22;48241;48.824;10.102;2022-10-14T04:40:25;14.90;96.10
62259;DHT22;48241;48.824;10.102;2022-10-14T04:42:55;15.00;95.70
62259;DHT22;48241;48.824;10.102;2022-10-14T04:45:21;15.00;95.50
62259;DHT22;48241;48.824;10.102;2022-10-14T04:47:47;15.00;95.80
62259;DHT22;48241;48.824;10.102;2022-10-14T04:50:13;14.90;95.40
62259;DHT22;48241;48.824;10.102;2022-10-14T04:52:38;15.00;96.00
62259;DHT22;48241;48.824;10.102;2022-10-14T04:55:04;15.00;95.80
62259;DHT22;48241;48.824;10.102;2022-10-14T04:57:30;14.80;95.60
62259;DHT22;48241;48.824;10.102;2022-10-14T04:59:56;14.80;96.10
62259;DHT22;48241;48.824;10.102;2022-10-14T05:02:21;14.70;96.30
62259;DHT22;48241;48.824;10.102;2022-10-14T05:04:47;14.80;96.40
62259;DHT22;48241;48.824;10.102;2022-10-14T05:07:12;14.90;95.80
62259;DHT22;48241;48.824;10.102;2022-10-14T05:09:38;14.80;95.40
62259;DHT22;48241;48.824;10.102;2022-10-14T05:12:03;14.80;95.70
62259;DHT22;48241;48.824;10.102;2022-10-14T05:14:29;14.60;95.50
62259;DHT22;48241;48.824;10.102;2022-10-14T05:16:54;14.70;96.10
62259;DHT22;48241;48.824;10.102;2022-10-14T05:19:20;14.40;96.60
62259;DHT22;48241;48.824;10.102;2022-10-14T05:21:46;14.50;96.20
62259;DHT22;48241;48.824;10.102;2022-10-14T05:24:11;14.60;96.00
62259;DHT22;48241;48.824;10.102;2022-10-14T05:26:37;14.70;95.80
62259;DHT22;48241;48.824;10.102;2022-10-14T05:29:02;14.80;95.70
62259;DHT22;48241;48.824;10.102;2022-10-14T05:31:29;14.70;95.30
62259;DHT22;48241;48.824;10.102;2022-10-14T05:33:54;14.90;95.50
62259;DHT22;48241;48.824;10.102;2022-10-14T05:36:20;15.10;95.30
62259;DHT22;48241;48.824;10.102;2022-10-14T05:38:45;15.00;94.80
62259;DHT22;48241;48.824;10.102;2022-10-14T05:41:11;15.00;95.00
62259;DHT22;48241;48.824;10.102;2022-10-14T05:43:37;15.00;95.00
62259;DHT22;48241;48.824;10.102;2022-10-14T05:46:02;15.00;95.30
62259;DHT22;48241;48.824;10.102;2022-10-14T05:48:28;15.00;95.20
62259;DHT22;48241;48.824;10.102;2022-10-14T05:50:53;15.20;94.90
62259;DHT22;48241;48.824;10.102;2022-10-14T05:53:19;15.20;95.00
62259;DHT22;48241;48.824;10.102;2022-10-14T05:55:45;15.10;95.10
62259;DHT22;48241;48.824;10.102;2022-10-14T05:58:10;15.20;94.70
62259;DHT22;48241;48.824;10.102;2022-10-14T06:00:36;15.20;94.50
62259;DHT22;48241;48.824;10.102;2022-10-14T06:03:01;14.90;95.10
62259;DHT22;48241;48.824;10.102;2022-10-14T06:05:27;14.90;95.30
62259;DHT22;48241;48.824;10.102;2022-10-14T06:07:53;14.90;95.50
62259;DHT22;48241;48.824;10.102;2022-10-14T06:10:18;14.60;96.10
62259;DHT22;48241;48.824;10.102;2022-10-14T06:12:44;14.20;96.20
62259;DHT22;48241;48.824;10.102;2022-10-14T06:15:09;14.10;97.40
62259;DHT22;48241;48.824;10.102;2022-10-14T06:17:35;13.80;97.90
62259;DHT22;48241;48.824;10.102;2022-10-14T06:20:01;13.70;98.20
62259;DHT22;48241;48.824;10.102;2022-10-14T06:22:27;13.70;98.30
62259;DHT22;48241;48.824;10.102;2022-10-14T06:24:53;13.50;99.00
62259;DHT22;48241;48.824;10.102;2022-10-14T06:27:18;13.60;98.70
62259;DHT22;48241;48.824;10.102;2022-10-14T06:29:44;13.80;98.70
62259;DHT22;48241;48.824;10.102;2022-10-14T06:32:11;13.80;97.80
62259;DHT22;48241;48.824;10.102;2022-10-14T06:34:36;13.90;98.20
62259;DHT22;48241;48.824;10.102;2022-10-14T06:37:02;13.90;98.40
62259;DHT22;48241;48.824;10.102;2022-10-14T06:39:27;13.70;98.90
62259;DHT22;48241;48.824;10.102;2022-10-14T06:41:53;13.70;99.30
62259;DHT22;48241;48.824;10.102;2022-10-14T06:44:22;13.90;98.90
62259;DHT22;48241;48.824;10.102;2022-10-14T06:46:47;13.90;98.60
62259;DHT22;48241;48.824;10.102;2022-10-14T06:49:13;14.00;98.30
62259;DHT22;48241;48.824;10.102;2022-10-14T06:51:39;14.10;98.00
62259;DHT22;48241;48.824;10.102;2022-10-14T06:54:05;14.20;97.50
62259;DHT22;48241;48.824;10.102;2022-10-14T06:56:30;14.20;97.40
62259;DHT22;48241;48.824;10.102;2022-10-14T06:58:57;14.50;96.90
62259;DHT22;48241;48.824;10.102;2022-10-14T07:01:23;14.70;96.50
62259;DHT22;48241;48.824;10.102;2022-10-14T07:03:48;15.20;95.80
62259;DHT22;48241;48.824;10.102;2022-10-14T07:06:14;15.20;94.60
62259;DHT22;48241;48.824;10.102;2022-10-14T07:08:41;15.20;94.80
62259;DHT22;48241;48.824;10.102;2022-10-14T07:11:07;15.10;95.30
62259;DHT22;48241;48.824;10.102;2022-10-14T07:13:32;14.90;95.40
62259;DHT22;48241;48.824;10.102;2022-10-14T07:15:59;14.80;96.80
62259;DHT22;48241;48.824;10.102;2022-10-14T07:18:24;15.10;96.50
62259;DHT22;48241;48.824;10.102;2022-10-14T07:20:50;15.10;96.10
62259;DHT22;48241;48.824;10.102;2022-10-14T07:23:16;15.30;94.70
62259;DHT22;48241;48.824;10.102;2022-10-14T07:25:42;15.10;95.70
62259;DHT22;48241;48.824;10.102;2022-10-14T07:28:08;15.30;96.00
62259;DHT22;48241;48.824;10.102;2022-10-14T07:30:34;15.50;95.00
62259;DHT22;48241;48.824;10.102;2022-10-14T07:33:00;16.10;94.50
62259;DHT22;48241;48.824;10.102;2022-10-14T07:35:26;16.50;92.90
62259;DHT22;48241;48.824;10.102;2022-10-14T07:37:52;16.70;91.90
62259;DHT22;48241;48.824;10.102;2022-10-14T07:40:18;16.30;93.30
62259;DHT22;48241;48.824;10.102;2022-10-14T07:42:44;16.30;92.90
62259;DHT22;48241;48.824;10.102;2022-10-14T07:45:10;16.60;92.20
62259;DHT22;48241;48.824;10.102;2022-10-14T07:47:41;16.80;91.20
62259;DHT22;48241;48.824;10.102;2022-10-14T07:50:08;17.00;90.80
62259;DHT22;48241;48.824;10.102;2022-10-14T07:52:34;17.00;91.10
62259;DHT22;48241;48.824;10.102;2022-10-14T07:55:00;17.40;91.10
62259;DHT22;48241;48.824;10.102;2022-10-14T07:57:26;18.10;90.20
62259;DHT22;48241;48.824;10.102;2022-10-14T07:59:52;18.60;85.00
62259;DHT22;48241;48.824;10.102;2022-10-14T08:02:18;18.50;84.80
62259;DHT22;48241;48.824;10.102;2022-10-14T08:04:44;18.40;84.30
62259;DHT22;48241;48.824;10.102;2022-10-14T08:07:10;18.10;85.90
62259;DHT22;48241;48.824;10.102;2022-10-14T08:09:38;18.40;86.50
62259;DHT22;48241;48.824;10.102;2022-10-14T08:12:04;18.40;85.00
62259;DHT22;48241;48.824;10.102;2022-10-14T08:14:30;17.50;88.00
62259;DHT22;48241;48.824;10.102;2022-10-14T08:16:56;17.50;88.30
62259;DHT22;48241;48.824;10.102;2022-10-14T08:19:21;17.20;89.30
62259;DHT22;48241;48.824;10.102;2022-10-14T08:21:47;17.60;90.10
62259;DHT22;48241;48.824;10.102;2022-10-14T08:24:13;17.70;86.70
62259;DHT22;48241;48.824;10.102;2022-10-14T08:26:47;18.00;87.50
62259;DHT22;48241;48.824;10.102;2022-10-14T08:29:13;17.80;86.90
62259;DHT22;48241;48.824;10.102;2022-10-14T08:31:39;17.90;88.10
62259;DHT22;48241;48.824;10.102;2022-10-14T08:34:04;18.20;86.70
62259;DHT22;48241;48.824;10.102;2022-10-14T08:36:30;18.70;83.90
62259;DHT22;48241;48.824;10.102;2022-10-14T08:38:56;18.40;84.40
62259;DHT22;48241;48.824;10.102;2022-10-14T08:44:19;17.80;86.70
62259;DHT22;48241;48.824;10.102;2022-10-14T08:46:51;17.90;86.40
62259;DHT22;48241;48.824;10.102;2022-10-14T08:52:11;17.80;87.90
62259;DHT22;48241;48.824;10.102;2022-10-14T08:54:51;18.10;84.70
62259;DHT22;48241;48.824;10.102;2022-10-14T08:57:21;18.30;84.70
62259;DHT22;48241;48.824;10.102;2022-10-14T08:59:50;18.60;86.10
62259;DHT22;48241;48.824;10.102;2022-10-14T09:02:21;18.20;86.30
62259;DHT22;48241;48.824;10.102;2022-10-14T09:04:48;17.90;88.10
62259;DHT22;48241;48.824;10.102;2022-10-14T09:07:16;17.70;89.90
62259;DHT22;48241;48.824;10.102;2022-10-14T09:09:46;18.30;88.20
62259;DHT22;48241;48.824;10.102;2022-10-14T09:12:16;19.10;84.30
62259;DHT22;48241;48.824;10.102;2022-10-14T09:17:26;19.70;81.50
62259;DHT22;48241;48.824;10.102;2022-10-14T09:22:26;20.80;77.70
62259;DHT22;48241;48.824;10.102;2022-10-14T09:24:52;21.10;77.00
62259;DHT22;48241;48.824;10.102;2022-10-14T09:27:20;21.10;75.80
62259;DHT22;48241;48.824;10.102;2022-10-14T09:29:50;21.20;74.20
62259;DHT22;48241;48.824;10.102;2022-10-14T09:32:35;21.60;72.50
62259;DHT22;48241;48.824;10.102;2022-10-14T09:35:03;21.80;72.60
62259;DHT22;48241;48.824;10.102;2022-10-14T09:37:34;21.70;71.70
62259;DHT22;48241;48.824;10.102;2022-10-14T09:47:13;21.30;74.20
62259;DHT22;48241;48.824;10.102;2022-10-14T09:49:46;21.70;71.80
62259;DHT22;48241;48.824;10.102;2022-10-14T09:52:23;21.60;71.70
62259;DHT22;48241;48.824;10.102;2022-10-14T09:54:57;21.90;70.80
62259;DHT22;48241;48.824;10.102;2022-10-14T09:57:25;22.10;70.00
62259;DHT22;48241;48.824;10.102;2022-10-14T09:59:57;22.30;70.30
62259;DHT22;48241;48.824;10.102;2022-10-14T10:02:41;22.40;67.80
62259;DHT22;48241;48.824;10.102;2022-10-14T10:05:11;22.40;69.20
62259;DHT22;48241;48.824;10.102;2022-10-14T10:07:37;22.10;65.80
62259;DHT22;48241;48.824;10.102;2022-10-14T10:10:16;21.50;69.20
62259;DHT22;48241;48.824;10.102;2022-10-14T10:12:42;21.70;69.70
62259;DHT22;48241;48.824;10.102;2022-10-14T10:15:17;21.80;69.10
62259;DHT22;48241;48.824;10.102;2022-10-14T10:17:43;22.00;69.20
62259;DHT22;48241;48.824;10.102;2022-10-14T10:20:18;22.30;69.00
62259;DHT22;48241;48.824;10.102;2022-10-14T10:22:44;22.70;68.80
62259;DHT22;48241;48.824;10.102;2022-10-14T10:27:42;23.40;66.20
62259;DHT22;48241;48.824;10.102;2022-10-14T10:30:28;23.40;64.60
62259;DHT22;48241;48.824;10.102;2022-10-14T10:33:20;23.20;63.80
62259;DHT22;48241;48.824;10.102;2022-10-14T10:38:38;21.80;67.80
62259;DHT22;48241;48.824;10.102;2022-10-14T11:00:19;20.20;75.70
62259;DHT22;48241;48.824;10.102;2022-10-14T11:05:50;20.60;73.20
62259;DHT22;48241;48.824;10.102;2022-10-14T11:08:38;21.20;72.20
62259;DHT22;48241;48.824;10.102;2022-10-14T11:11:52;21.50;71.60
62259;DHT22;48241;48.824;10.102;2022-10-14T11:15:12;22.20;68.60
62259;DHT22;48241;48.824;10.102;2022-10-14T11:18:04;22.10;67.90
62259;DHT22;48241;48.824;10.102;2022-10-14T11:32:36;22.80;65.70
62259;DHT22;48241;48.824;10.102;2022-10-14T11:35:04;22.80;66.50
62259;DHT22;48241;48.824;10.102;2022-10-14T11:43:49;23.30;64.40
62259;DHT22;48241;48.824;10.102;2022-10-14T11:46:21;23.30;64.80
62259;DHT22;48241;48.824;10.102;2022-10-14T11:49:10;23.30;63.70
62259;DHT22;48241;48.824;10.102;2022-10-14T11:59:01;22.30;65.20
62259;DHT22;48241;48.824;10.102;2022-10-14T15:21:46;18.80;83.00
62259;DHT22;48241;48.824;10.102;2022-10-14T15:55:32;17.60;92.70
62259;DHT22;48241;48.824;10.102;2022-10-14T15:57:59;17.60;93.00
62259;DHT22;48241;48.824;10.102;2022-10-14T16:00:58;17.60;93.50
62259;DHT22;48241;48.824;10.102;2022-10-14T16:14:32;17.10;96.30
62259;DHT22;48241;48.824;10.102;2022-10-14T16:21:31;16.70;97.10
62259;DHT22;48241;48.824;10.102;2022-10-14T16:28:02;16.90;97.70
62259;DHT22;48241;48.824;10.102;2022-10-14T16:48:12;16.40;98.60
62259;DHT22;48241;48.824;10.102;2022-10-14T16:51:32;16.30;99.10
62259;DHT22;48241;48.824;10.102;2022-10-14T16:58:17;16.30;98.30
62259;DHT22;48241;48.824;10.102;2022-10-14T17:07:54;16.00;99.30
62259;DHT22;48241;48.824;10.102;2022-10-14T17:10:32;16.00;99.50
62259;DHT22;48241;48.824;10.102;2022-10-14T17:13:42;16.10;99.10
62259;DHT22;48241;48.824;10.102;2022-10-14T17:22:15;16.00;98.30
62259;DHT22;48241;48.824;10.102;2022-10-14T17:28:04;16.00;98.50
62259;DHT22;48241;48.824;10.102;2022-10-14T17:31:16;16.20;98.80
62259;DHT22;48241;48.824;10.102;2022-10-14T17:34:17;16.20;98.30
62259;DHT22;48241;48.824;10.102;2022-10-14T17:42:53;15.80;98.80
62259;DHT22;48241;48.824;10.102;2022-10-14T17:45:39;15.90;98.40
62259;DHT22;48241;48.824;10.102;2022-10-14T17:48:12;16.00;98.10
62259;DHT22;48241;48.824;10.102;2022-10-14T17:50:51;16.10;98.40
62259;DHT22;48241;48.824;10.102;2022-10-14T17:53:39;16.10;97.40
62259;DHT22;48241;48.824;10.102;2022-10-14T17:56:07;16.10;98.40
62259;DHT22;48241;48.824;10.102;2022-10-14T17:58:46;16.10;97.80
62259;DHT22;48241;48.824;10.102;2022-10-14T18:01:20;16.00;98.00
62259;DHT22;48241;48.824;10.102;2022-10-14T18:03:50;15.80;98.90
62259;DHT22;48241;48.824;10.102;2022-10-14T18:06:26;15.70;99.40
62259;DHT22;48241;48.824;10.102;2022-10-14T18:09:10;15.80;99.40
62259;DHT22;48241;48.824;10.102;2022-10-14T18:11:47;15.70;99.30
62259;DHT22;48241;48.824;10.102;2022-10-14T18:14:19;15.60;99.90
62259;DHT22;48241;48.824;10.102;2022-10-14T18:19:42;15.30;99.90
62259;DHT22;48241;48.824;10.102;2022-10-14T18:25:40;15.30;99.90
62259;DHT22;48241;48.824;10.102;2022-10-14T18:28:15;15.30;99.90
62259;DHT22;48241;48.824;10.102;2022-10-14T18:31:14;15.50;99.90
62259;DHT22;48241;48.824;10.102;2022-10-14T18:37:14;15.40;99.90
62259;DHT22;48241;48.824;10.102;2022-10-14T18:40:00;15.60;99.90
62259;DHT22;48241;48.824;10.102;2022-10-14T18:43:01;15.70;99.80
62259;DHT22;48241;48.824;10.102;2022-10-14T18:45:44;15.70;99.10
62259;DHT22;48241;48.824;10.102;2022-10-14T18:48:12;15.60;99.90
62259;DHT22;48241;48.824;10.102;2022-10-14T18:50:40;15.70;99.90
62259;DHT22;48241;48.824;10.102;2022-10-14T18:53:18;15.60;99.90
62259;DHT22;48241;48.824;10.102;2022-10-14T18:55:46;15.60;99.90
62259;DHT22;48241;48.824;10.102;2022-10-14T18:58:48;15.60;99.90
62259;DHT22;48241;48.824;10.102;2022-10-14T19:01:44;15.60;99.90
62259;DHT22;48241;48.824;10.102;2022-10-14T19:14:43;15.80;98.80
62259;DHT22;48241;48.824;10.102;2022-10-14T19:17:44;16.00;98.80
62259;DHT22;48241;48.824;10.102;2022-10-14T19:20:44;16.10;98.10
62259;DHT22;48241;48.824;10.102;2022-10-14T19:23:46;15.90;98.60
62259;DHT22;48241;48.824;10.102;2022-10-14T19:26:26;15.90;99.10
62259;DHT22;48241;48.824;10.102;2022-10-14T19:29:22;15.90;99.40
62259;DHT22;48241;48.824;10.102;2022-10-14T19:31:52;15.80;98.20
62259;DHT22;48241;48.824;10.102;2022-10-14T19:34:25;15.80;98.60
62259;DHT22;48241;48.824;10.102;2022-10-14T19:36:54;15.90;99.00
62259;DHT22;48241;48.824;10.102;2022-10-14T19:45:40;16.30;97.70
62259;DHT22;48241;48.824;10.102;2022-10-14T19:48:11;16.20;97.40
62259;DHT22;48241;48.824;10.102;2022-10-14T19:51:18;16.10;96.10
62259;DHT22;48241;48.824;10.102;2022-10-14T19:53:57;16.00;96.70
62259;DHT22;48241;48.824;10.102;2022-10-14T19:59:45;16.00;97.00
62259;DHT22;48241;48.824;10.102;2022-10-14T20:02:16;16.10;97.20
62259;DHT22;48241;48.824;10.102;2022-10-14T20:04:42;15.90;97.40
62259;DHT22;48241;48.824;10.102;2022-10-14T20:07:08;16.10;97.40
62259;DHT22;48241;48.824;10.102;2022-10-14T20:09:44;16.10;97.30
62259;DHT22;48241;48.824;10.102;2022-10-14T20:15:21;16.20;97.40
62259;DHT22;48241;48.824;10.102;2022-10-14T20:18:07;16.10;97.40
62259;DHT22;48241;48.824;10.102;2022-10-14T20:21:03;15.90;97.60
62259;DHT22;48241;48.824;10.102;2022-10-14T20:24:01;16.00;97.80
62259;DHT22;48241;48.824;10.102;2022-10-14T20:29:58;15.60;98.70
62259;DHT22;48241;48.824;10.102;2022-10-14T20:32:24;15.70;98.30
62259;DHT22;48241;48.824;10.102;2022-10-14T20:35:19;15.50;98.80
62259;DHT22;48241;48.824;10.102;2022-10-14T20:38:08;15.50;99.10
62259;DHT22;48241;48.824;10.102;2022-10-14T20:41:19;15.40;99.10
62259;DHT22;48241;48.824;10.102;2022-10-14T20:44:29;15.10;98.90
62259;DHT22;48241;48.824;10.102;2022-10-14T20:47:08;14.90;99.90
62259;DHT22;48241;48.824;10.102;2022-10-14T20:50:14;15.20;99.90
62259;DHT22;48241;48.824;10.102;2022-10-14T20:53:15;15.20;99.60
62259;DHT22;48241;48.824;10.102;2022-10-14T20:56:24;15.20;99.80
62259;DHT22;48241;48.824;10.102;2022-10-14T21:05:55;15.20;99.70
62259;DHT22;48241;48.824;10.102;2022-10-14T21:11:54;15.20;99.50
62259;DHT22;48241;48.824;10.102;2022-10-14T21:14:28;15.20;99.90
62259;DHT22;48241;48.824;10.102;2022-10-14T21:17:02;15.10;99.90
62259;DHT22;48241;48.824;10.102;2022-10-14T21:19:27;15.30;99.90
62259;DHT22;48241;48.824;10.102;2022-10-14T21:21:56;15.30;99.90
62259;DHT22;48241;48.824;10.102;2022-10-14T21:24:30;15.40;99.50
62259;DHT22;48241;48.824;10.102;2022-10-14T21:27:20;15.50;99.20
62259;DHT22;48241;48.824;10.102;2022-10-14T21:29:49;15.20;99.60
62259;DHT22;48241;48.824;10.102;2022-10-14T21:32:17;15.30;99.90
62259;DHT22;48241;48.824;10.102;2022-10-14T21:34:51;15.30;99.90
62259;DHT22;48241;48.824;10.102;2022-10-14T21:37:41;15.50;99.60
62259;DHT22;48241;48.824;10.102;2022-10-14T21:40:29;15.50;99.50
62259;DHT22;48241;48.824;10.102;2022-10-14T21:43:18;15.40;99.40
62259;DHT22;48241;48.824;10.102;2022-10-14T21:45:47;15.40;99.80
62259;DHT22;48241;48.824;10.102;2022-10-14T21:48:15;15.40;99.80
62259;DHT22;48241;48.824;10.102;2022-10-14T21:50:41;15.50;99.80
62259;DHT22;48241;48.824;10.102;2022-10-14T21:53:28;15.60;99.40
62259;DHT22;48241;48.824;10.102;2022-10-14T21:55:56;15.80;99.20
62259;DHT22;48241;48.824;10.102;2022-10-14T21:58:33;15.80;98.20
62259;DHT22;48241;48.824;10.102;2022-10-14T22:01:14;15.60;99.40
62259;DHT22;48241;48.824;10.102;2022-10-14T22:03:54;15.60;99.70
62259;DHT22;48241;48.824;10.102;2022-10-14T22:06:24;15.60;99.90
62259;DHT22;48241;48.824;10.102;2022-10-14T22:08:58;15.50;99.90
62259;DHT22;48241;48.824;10.102;2022-10-14T22:11:34;15.30;99.90
62259;DHT22;48241;48.824;10.102;2022-10-14T22:14:02;15.40;99.90
62259;DHT22;48241;48.824;10.102;2022-10-14T22:16:33;15.50;99.90
62259;DHT22;48241;48.824;10.102;2022-10-14T22:19:08;15.50;99.90
62259;DHT22;48241;48.824;10.102;2022-10-14T22:21:45;15.60;99.90
62259;DHT22;48241;48.824;10.102;2022-10-14T22:24:38;15.80;99.90
62259;DHT22;48241;48.824;10.102;2022-10-14T22:27:12;15.70;99.70
62259;DHT22;48241;48.824;10.102;2022-10-14T22:29:43;15.80;99.90
62259;DHT22;48241;48.824;10.102;2022-10-14T22:32:17;16.10;99.00
62259;DHT22;48241;48.824;10.102;2022-10-14T22:34:43;16.00;99.30
62259;DHT22;48241;48.824;10.102;2022-10-14T22:37:17;15.90;99.10
62259;DHT22;48241;48.824;10.102;2022-10-14T22:39:43;15.80;99.40
62259;DHT22;48241;48.824;10.102;2022-10-14T22:42:13;15.70;99.90
62259;DHT22;48241;48.824;10.102;2022-10-14T22:44:39;15.60;99.90
62259;DHT22;48241;48.824;10.102;2022-10-14T22:47:05;15.50;99.90
62259;DHT22;48241;48.824;10.102;2022-10-14T22:49:33;15.50;99.90
62259;DHT22;48241;48.824;10.102;2022-10-14T22:52:06;15.70;99.90
62259;DHT22;48241;48.824;10.102;2022-10-14T22:54:34;15.70;99.90
62259;DHT22;48241;48.824;10.102;2022-10-14T22:57:00;15.70;99.90